createdAt,value
2023-05-22T00:01:30.122Z,4.93
2023-05-22T00:06:34.160Z,5.28
2023-05-22T00:11:36.541Z,5.60
2023-05-22T00:16:38.163Z,5.10
2023-05-22T00:21:39.798Z,5.43
2023-05-22T00:26:41.453Z,5.25
2023-05-22T00:31:42.998Z,5.32
2023-05-22T00:36:44.584Z,4.78
2023-05-22T00:41:46.470Z,5.28
2023-05-22T00:46:48.081Z,5.10
2023-05-22T00:51:50.115Z,5.07
2023-05-22T00:56:51.851Z,5.15
2023-05-22T01:01:54.521Z,5.50
2023-05-22T01:06:56.275Z,5.88
2023-05-22T01:12:12.099Z,5.75
2023-05-22T01:17:24.726Z,5.65
2023-05-22T01:22:40.890Z,5.60
2023-05-22T01:28:01.740Z,5.80
2023-05-22T01:33:04.595Z,5.25
2023-05-22T01:38:07.695Z,6.10
2023-05-22T01:43:09.405Z,5.47
2023-05-22T01:48:12.079Z,5.55
2023-05-22T01:53:39.625Z,5.55
2023-05-22T01:58:52.853Z,5.88
2023-05-22T02:03:58.173Z,6.00
2023-05-22T02:09:02.238Z,5.43
2023-05-22T02:14:03.885Z,5.75
2023-05-22T02:19:08.397Z,5.78
2023-05-22T02:24:10.581Z,5.53
2023-05-22T02:29:13.395Z,5.50
2023-05-22T02:34:15.045Z,6.38
2023-05-22T02:39:19.289Z,5.80
2023-05-22T02:44:21.058Z,5.55
2023-05-22T02:49:22.658Z,5.53
2023-05-22T02:54:24.267Z,5.25
2023-05-22T02:59:26.044Z,5.40
2023-05-22T03:04:27.605Z,5.53
2023-05-22T03:09:29.162Z,5.57
2023-05-22T03:14:30.781Z,5.63
2023-05-22T03:19:32.415Z,6.32
2023-05-22T03:24:34.080Z,5.80
2023-05-22T03:29:36.479Z,6.03
2023-05-22T03:34:38.161Z,5.60
2023-05-22T03:39:39.914Z,5.28
2023-05-22T03:44:41.462Z,6.35
2023-05-22T03:49:43.013Z,5.82
2023-05-22T03:54:44.682Z,5.68
2023-05-22T03:59:46.664Z,5.55
2023-05-22T04:04:48.396Z,5.90
2023-05-22T04:09:50.022Z,5.72
2023-05-22T04:14:51.622Z,6.00
2023-05-22T04:19:53.217Z,6.15
2023-05-22T04:24:54.878Z,6.25
2023-05-22T04:29:56.488Z,6.40
2023-05-22T04:35:00.495Z,6.90
2023-05-22T04:40:06.515Z,6.55
2023-05-22T04:45:09.048Z,5.85
2023-05-22T04:50:10.860Z,6.45
2023-05-22T04:55:12.768Z,6.05
2023-05-22T05:00:16.842Z,6.35
2023-05-22T05:05:18.468Z,6.32
2023-05-22T05:10:20.276Z,6.07
2023-05-22T05:15:23.760Z,6.10
2023-05-22T05:20:25.411Z,6.47
2023-05-22T05:25:27.037Z,6.80
2023-05-22T05:30:31.134Z,5.97
2023-05-22T05:35:32.743Z,6.22
2023-05-22T05:40:34.468Z,6.43
2023-05-22T05:45:36.146Z,6.53
2023-05-22T05:50:37.959Z,5.93
2023-05-22T05:55:39.714Z,6.40
2023-05-22T06:00:42.483Z,5.82
2023-05-22T06:05:45.906Z,6.25
2023-05-22T06:10:48.393Z,7.10
2023-05-22T06:15:50.107Z,6.63
2023-05-22T06:20:53.211Z,7.43
2023-05-22T06:25:55.526Z,6.57
2023-05-22T06:30:58.094Z,6.20
2023-05-22T06:35:59.788Z,6.65
2023-05-22T06:41:01.444Z,5.95
2023-05-22T06:46:03.163Z,6.50
2023-05-22T06:51:04.953Z,7.18
2023-05-22T06:56:06.715Z,6.53
2023-05-22T07:01:08.309Z,6.57
2023-05-22T07:06:10.235Z,6.85
2023-05-22T07:11:11.857Z,6.70
2023-05-22T07:16:14.805Z,6.40
2023-05-22T07:21:16.456Z,6.13
2023-05-22T07:26:18.307Z,6.50
2023-05-22T07:31:19.978Z,6.32
2023-05-22T07:36:22.681Z,5.80
2023-05-22T07:41:27.754Z,5.95
2023-05-22T07:46:29.893Z,5.83
2023-05-22T07:51:32.165Z,6.13
2023-05-22T07:56:34.388Z,5.82
2023-05-22T08:01:38.024Z,6.13
2023-05-22T08:06:40.015Z,5.93
2023-05-22T08:11:42.811Z,6.80
2023-05-22T08:16:44.468Z,5.97
2023-05-22T08:21:46.117Z,6.22
2023-05-22T08:26:47.688Z,5.85
2023-05-22T08:31:49.463Z,5.70
2023-05-22T08:36:51.107Z,6.20
2023-05-22T08:41:52.747Z,5.65
2023-05-22T08:46:56.696Z,5.00
2023-05-22T08:52:06.106Z,5.38
2023-05-22T08:57:08.407Z,5.63
2023-05-22T09:02:10.497Z,5.72
2023-05-22T09:07:12.112Z,5.63
2023-05-22T09:12:13.746Z,5.32
2023-05-22T09:17:16.646Z,5.90
2023-05-22T09:22:18.644Z,8.43
2023-05-22T09:27:23.406Z,9.73
2023-05-22T09:32:25.389Z,5.95
2023-05-22T09:37:28.627Z,5.70
2023-05-22T09:42:30.319Z,5.45
2023-05-22T09:47:32.480Z,5.50
2023-05-22T09:52:36.060Z,5.85
2023-05-22T09:57:45.028Z,6.57
2023-05-22T10:02:49.170Z,5.28
2023-05-22T10:07:53.010Z,6.13
2023-05-22T10:13:02.556Z,5.20
2023-05-22T10:18:05.155Z,5.43
2023-05-22T10:23:09.476Z,4.93
2023-05-22T10:28:13.621Z,4.90
2023-05-22T10:33:23.047Z,4.60
2023-05-22T10:38:55.696Z,3.97
2023-05-22T10:43:58.005Z,3.97
2023-05-22T10:49:00.061Z,3.97
2023-05-22T10:54:05.888Z,4.40
2023-05-22T11:02:20.535Z,4.60
2023-05-22T11:04:29.708Z,5.20
2023-05-22T11:09:33.723Z,4.60
2023-05-22T11:14:36.935Z,4.63
2023-05-22T11:19:41.212Z,4.55
2023-05-22T11:24:43.131Z,4.10
2023-05-22T11:29:45.016Z,4.30
2023-05-22T11:34:47.806Z,4.07
2023-05-22T11:39:56.043Z,4.22
2023-05-22T11:44:57.682Z,3.92
2023-05-22T11:50:02.413Z,3.67
2023-05-22T11:55:05.619Z,3.35
2023-05-22T12:00:08.886Z,4.03
2023-05-22T12:05:12.065Z,3.55
2023-05-22T12:10:14.732Z,3.80
2023-05-22T12:15:20.321Z,3.65
2023-05-22T12:20:22.028Z,3.90
2023-05-22T12:25:25.071Z,3.53
2023-05-22T12:30:26.734Z,3.50
2023-05-22T12:35:29.142Z,3.25
2023-05-22T12:40:30.805Z,4.07
2023-05-22T12:45:32.439Z,3.70
2023-05-22T12:50:34.122Z,3.97
2023-05-22T12:55:36.291Z,3.60
2023-05-22T13:00:38.205Z,3.78
2023-05-22T13:05:40.404Z,4.18
2023-05-22T13:10:42.241Z,4.13
2023-05-22T13:15:44.153Z,4.13
2023-05-22T13:20:46.092Z,4.30
2023-05-22T13:25:47.970Z,4.50
2023-05-22T13:30:49.636Z,4.03
2023-05-22T13:35:51.751Z,4.30
2023-05-22T13:40:53.504Z,4.32
2023-05-22T13:45:55.172Z,4.10
2023-05-22T13:50:56.825Z,4.65
2023-05-22T13:55:58.599Z,3.85
2023-05-22T14:01:00.242Z,4.50
2023-05-22T14:06:01.984Z,4.30
2023-05-22T14:11:03.852Z,3.80
2023-05-22T14:16:05.663Z,4.40
2023-05-22T14:21:07.279Z,3.88
2023-05-22T14:26:08.852Z,3.90
2023-05-22T14:31:10.547Z,4.03
2023-05-22T14:36:13.381Z,5.53
2023-05-22T14:41:16.328Z,3.97
2023-05-22T14:46:18.001Z,4.43
2023-05-22T14:51:21.195Z,4.03
2023-05-22T14:56:23.136Z,3.78
2023-05-22T15:01:24.743Z,3.80
2023-05-22T15:06:26.429Z,3.80
2023-05-22T15:11:28.099Z,4.93
2023-05-22T15:16:29.811Z,4.35
2023-05-22T15:21:31.526Z,3.80
2023-05-22T15:26:33.191Z,4.00
2023-05-22T15:31:34.938Z,4.32
2023-05-22T15:36:36.853Z,3.70
2023-05-22T15:41:38.510Z,3.97
2023-05-22T15:46:40.144Z,3.50
2023-05-22T15:51:41.751Z,3.28
2023-05-22T15:56:43.378Z,3.53
2023-05-22T16:01:45.169Z,4.35
2023-05-22T16:06:47.007Z,3.92
2023-05-22T16:11:49.089Z,3.85
2023-05-22T16:16:50.917Z,3.90
2023-05-22T16:21:52.590Z,3.63
2023-05-22T16:26:56.338Z,3.70
2023-05-22T16:31:58.249Z,4.78
2023-05-22T16:37:00.956Z,3.88
2023-05-22T16:42:02.610Z,4.03
2023-05-22T16:47:04.523Z,3.97
2023-05-22T16:52:06.356Z,3.72
2023-05-22T16:57:08.086Z,4.03
2023-05-22T17:02:10.132Z,4.00
2023-05-22T17:07:11.906Z,3.70
2023-05-22T17:12:13.622Z,4.00
2023-05-22T17:17:15.522Z,3.95
2023-05-22T17:22:17.165Z,4.05
2023-05-22T17:27:34.403Z,4.05
2023-05-22T17:32:37.997Z,3.70
2023-05-22T17:37:40.400Z,4.22
2023-05-22T17:42:42.564Z,4.55
2023-05-22T17:47:44.936Z,3.58
2023-05-22T17:52:47.123Z,3.47
2023-05-22T17:57:49.369Z,3.40
2023-05-22T18:02:52.056Z,3.83
2023-05-22T18:07:54.516Z,3.88
2023-05-22T18:12:57.266Z,4.32
2023-05-22T18:18:00.005Z,3.67
2023-05-22T18:23:02.551Z,4.25
2023-05-22T18:28:04.981Z,3.67
2023-05-22T18:33:07.438Z,3.53
2023-05-22T18:38:09.884Z,3.65
2023-05-22T18:43:12.682Z,3.95
2023-05-22T18:48:15.132Z,4.10
2023-05-22T18:53:17.850Z,3.88
2023-05-22T18:58:20.627Z,4.10
2023-05-22T19:03:23.303Z,3.97
2023-05-22T19:08:27.330Z,4.40
2023-05-22T19:13:30.065Z,4.30
2023-05-22T19:18:33.221Z,4.72
2023-05-22T19:23:35.803Z,4.40
2023-05-22T19:28:38.157Z,4.10
2023-05-22T19:33:40.791Z,3.90
2023-05-22T19:38:43.273Z,3.97
2023-05-22T19:43:45.688Z,3.65
2023-05-22T19:48:48.033Z,3.75
2023-05-22T19:53:50.242Z,4.13
2023-05-22T19:58:52.251Z,3.97
2023-05-22T20:03:56.512Z,4.13
2023-05-22T20:08:58.654Z,3.83
2023-05-22T20:14:02.854Z,4.07
2023-05-22T20:19:05.440Z,4.30
2023-05-22T20:24:18.112Z,4.05
2023-05-22T20:29:20.797Z,3.80
2023-05-22T20:34:24.169Z,3.83
2023-05-22T20:39:27.180Z,3.63
2023-05-22T20:44:32.079Z,3.90
2023-05-22T20:49:35.064Z,4.53
2023-05-22T20:54:37.064Z,4.00
2023-05-22T20:59:39.147Z,4.47
2023-05-22T21:04:41.009Z,4.32
2023-05-22T21:09:42.710Z,4.15
2023-05-22T21:14:44.392Z,3.60
2023-05-22T21:19:46.451Z,4.43
2023-05-22T21:24:48.242Z,3.90
2023-05-22T21:29:49.913Z,4.65
2023-05-22T21:34:51.773Z,4.57
2023-05-22T21:39:53.432Z,3.67
2023-05-22T21:44:55.402Z,4.38
2023-05-22T21:49:57.019Z,3.90
2023-05-22T21:54:58.764Z,4.13
2023-05-22T22:00:00.538Z,4.10
2023-05-22T22:05:02.248Z,4.18
2023-05-22T22:10:04.411Z,3.92
2023-05-22T22:15:06.763Z,4.28
2023-05-22T22:20:09.225Z,4.35
2023-05-22T22:25:11.272Z,3.88
2023-05-22T22:30:13.101Z,4.40
2023-05-22T22:35:14.856Z,4.18
2023-05-22T22:40:16.598Z,4.75
2023-05-22T22:45:18.230Z,4.28
2023-05-22T22:50:19.845Z,4.38
2023-05-22T22:55:21.749Z,4.35
2023-05-22T23:00:23.948Z,5.10
2023-05-22T23:05:25.607Z,4.53
2023-05-22T23:10:27.768Z,4.35
2023-05-22T23:15:29.408Z,4.18
2023-05-22T23:20:31.026Z,4.60
2023-05-22T23:25:32.783Z,4.18
2023-05-22T23:30:35.066Z,4.40
2023-05-22T23:35:36.665Z,4.40
2023-05-22T23:40:38.335Z,4.43
2023-05-22T23:45:40.298Z,4.25
2023-05-22T23:50:42.321Z,4.13
2023-05-22T23:55:44.022Z,4.30
